Time;durP1;ratioP1;P1;durP2;ratioP2;P2;SDS_P1;SDS_P2;PMS_P1;PMS_P2;Temp;Humidity;BMP_temperature;BMP_pressure;BME280_temperature;BME280_humidity;BME280_pressure;Samples;Min_cycle;Max_cycle;Signal;HPM_P1;HPM_P2
2022/03/19 00:02:24;;;;;;;23.57;15.20;;;3.10;99.90;;;;;;5117197;28;20228;-81
2022/03/19 00:04:49;;;;;;;23.53;15.40;;;3.10;99.90;;;;;;5118207;28;20172;-82
2022/03/19 00:07:15;;;;;;;29.73;15.73;;;3.10;99.90;;;;;;5118836;28;20168;-82
2022/03/19 00:09:42;;;;;;;23.97;15.37;;;;;;;;;;5118721;28;20195;-82
2022/03/19 00:12:13;;;;;;;23.67;14.97;;;3.10;99.90;;;;;;5117188;28;20429;-82
2022/03/19 00:14:39;;;;;;;20.33;14.53;;;3.00;99.90;;;;;;5117842;28;20488;-82
2022/03/19 00:17:04;;;;;;;22.97;15.10;;;3.00;99.90;;;;;;5119462;28;20449;-82
2022/03/19 00:19:30;;;;;;;26.23;15.90;;;2.90;99.90;;;;;;5118048;28;20210;-82
2022/03/19 00:21:56;;;;;;;23.90;15.43;;;2.90;99.90;;;;;;5118528;28;20259;-82
2022/03/19 00:24:21;;;;;;;23.97;15.73;;;3.40;99.90;;;;;;5118022;28;20203;-82
2022/03/19 00:26:47;;;;;;;21.97;14.83;;;2.70;99.90;;;;;;5119671;28;20267;-82
2022/03/19 00:29:13;;;;;;;23.37;15.30;;;2.70;99.90;;;;;;5118897;28;20168;-82
2022/03/19 00:31:38;;;;;;;22.43;14.97;;;2.80;99.90;;;;;;5118588;28;20255;-81
2022/03/19 00:34:04;;;;;;;25.40;15.63;;;2.70;99.90;;;;;;5118359;28;20633;-81
2022/03/19 00:36:30;;;;;;;20.53;14.60;;;2.70;99.90;;;;;;5115610;28;20203;-81
2022/03/19 00:38:56;;;;;;;25.73;16.23;;;2.70;99.90;;;;;;5116878;28;20196;-81
2022/03/19 00:41:21;;;;;;;25.47;15.70;;;2.60;99.90;;;;;;5116194;28;20705;-82
2022/03/19 00:43:47;;;;;;;24.87;15.77;;;3.20;99.90;;;;;;5116574;28;20203;-83
2022/03/19 00:46:15;;;;;;;23.43;14.90;;;2.60;99.90;;;;;;5120271;28;20188;-82
2022/03/19 00:48:42;;;;;;;21.20;15.17;;;2.60;99.90;;;;;;5121822;28;20261;-83
2022/03/19 00:51:08;;;;;;;23.77;15.47;;;;;;;;;;5120538;28;20772;-82
2022/03/19 00:53:34;;;;;;;23.70;15.13;;;;;;;;;;5120071;28;20910;-83
2022/03/19 00:56:00;;;;;;;24.43;15.80;;;2.60;99.90;;;;;;5121162;28;20459;-81
2022/03/19 00:58:26;;;;;;;23.80;15.90;;;2.70;99.90;;;;;;5121388;28;20413;-82
2022/03/19 01:00:52;;;;;;;27.73;16.53;;;2.70;99.90;;;;;;5124507;28;20660;-82
2022/03/19 01:03:17;;;;;;;22.47;14.80;;;2.60;99.90;;;;;;5121500;28;20209;-82
2022/03/19 01:05:43;;;;;;;24.63;16.33;;;2.60;99.90;;;;;;5121034;28;20254;-83
2022/03/19 01:08:11;;;;;;;25.73;15.97;;;2.60;99.90;;;;;;5125735;28;20167;-82
2022/03/19 01:10:37;;;;;;;20.50;15.13;;;;;;;;;;5128699;28;20287;-83
2022/03/19 01:13:05;;;;;;;23.97;16.17;;;2.50;99.90;;;;;;5129179;28;20401;-81
2022/03/19 01:15:31;;;;;;;24.43;15.33;;;2.40;99.90;;;;;;5132322;28;20429;-82
2022/03/19 01:17:57;;;;;;;24.20;15.27;;;2.40;99.90;;;;;;5128179;28;20478;-82
2022/03/19 01:20:27;;;;;;;24.00;15.40;;;2.40;99.90;;;;;;5125527;28;20629;-82
2022/03/19 01:22:53;;;;;;;25.43;16.03;;;;;;;;;;5120420;28;20200;-83
2022/03/19 01:25:19;;;;;;;21.20;14.63;;;2.40;99.90;;;;;;5119833;28;20429;-82
2022/03/19 01:27:46;;;;;;;24.07;17.10;;;2.30;99.90;;;;;;5119920;28;20519;-83
2022/03/19 01:30:17;;;;;;;24.27;15.20;;;2.40;99.90;;;;;;5119987;28;20813;-82
2022/03/19 01:32:44;;;;;;;26.37;16.23;;;2.20;99.90;;;;;;5119505;28;20417;-82
2022/03/19 01:35:10;;;;;;;23.43;15.90;;;2.30;99.90;;;;;;5119627;28;20437;-82
2022/03/19 01:37:37;;;;;;;28.80;19.10;;;2.40;99.90;;;;;;5120793;28;20744;-82
2022/03/19 01:40:05;;;;;;;22.83;15.83;;;2.30;99.90;;;;;;5120636;28;20471;-82
2022/03/19 01:42:33;;;;;;;34.30;18.07;;;2.30;99.90;;;;;;5120295;28;21011;-82
2022/03/19 01:45:00;;;;;;;28.03;18.23;;;2.20;99.90;;;;;;5120293;28;20408;-82
2022/03/19 01:47:26;;;;;;;28.87;17.17;;;2.20;99.90;;;;;;5119600;28;20410;-82
2022/03/19 01:49:52;;;;;;;28.83;17.70;;;2.20;99.90;;;;;;5119082;28;20420;-81
2022/03/19 01:52:18;;;;;;;26.97;16.97;;;2.20;99.90;;;;;;5118550;28;20417;-81
2022/03/19 01:54:47;;;;;;;28.17;17.83;;;2.20;99.90;;;;;;5118983;28;20244;-81
2022/03/19 01:57:19;;;;;;;32.50;18.77;;;2.20;99.90;;;;;;5119221;28;20405;-82
2022/03/19 01:59:46;;;;;;;26.30;17.90;;;2.10;99.90;;;;;;5119727;28;20409;-81
2022/03/19 02:02:11;;;;;;;29.03;19.13;;;2.10;99.90;;;;;;5119424;28;20791;-82
2022/03/19 02:04:39;;;;;;;30.97;17.33;;;2.30;99.90;;;;;;5118016;28;20406;-81
2022/03/19 02:07:11;;;;;;;27.73;18.07;;;2.10;99.90;;;;;;5119264;28;20545;-82
2022/03/19 02:09:38;;;;;;;25.83;17.10;;;2.00;99.90;;;;;;5118622;28;20410;-82
2022/03/19 02:12:05;;;;;;;25.03;17.77;;;2.10;99.90;;;;;;5118564;28;20541;-82
2022/03/19 02:14:34;;;;;;;31.73;18.10;;;2.00;99.90;;;;;;5119680;28;20406;-82
2022/03/19 02:17:01;;;;;;;31.27;18.70;;;2.00;99.90;;;;;;5119530;28;20595;-82
2022/03/19 02:19:27;;;;;;;27.17;17.60;;;2.00;99.90;;;;;;5118765;28;20494;-82
2022/03/19 02:21:52;;;;;;;25.93;17.97;;;2.00;99.90;;;;;;5119509;28;20405;-82
2022/03/19 02:27:03;;;;;;;29.13;18.53;;;2.00;99.90;;;;;;5119321;28;20203;-82
2022/03/19 02:29:29;;;;;;;28.67;18.10;;;2.00;99.90;;;;;;5118347;28;20413;-82
2022/03/19 02:31:57;;;;;;;27.67;18.13;;;2.00;99.90;;;;;;5117623;28;20461;-82
2022/03/19 02:34:23;;;;;;;30.43;18.20;;;1.90;99.90;;;;;;5119306;28;20167;-82
2022/03/19 02:36:49;;;;;;;28.43;18.80;;;2.00;99.90;;;;;;5119240;28;20436;-82
2022/03/19 02:39:28;;;;;;;30.20;18.87;;;1.90;99.90;;;;;;5117910;28;20186;-82
2022/03/19 02:41:55;;;;;;;28.77;18.03;;;1.80;99.90;;;;;;5118116;28;20220;-82
2022/03/19 02:44:22;;;;;;;31.97;18.77;;;1.70;99.90;;;;;;5117790;28;20821;-82
2022/03/19 02:46:57;;;;;;;29.20;19.20;;;1.70;99.90;;;;;;5117542;28;20806;-82
2022/03/19 02:49:23;;;;;;;28.97;18.17;;;1.70;99.90;;;;;;5119086;28;20381;-82
2022/03/19 02:51:50;;;;;;;32.90;20.73;;;1.50;99.90;;;;;;5117977;28;20405;-82
2022/03/19 02:54:19;;;;;;;29.70;19.07;;;1.60;99.90;;;;;;5119867;28;20435;-82
2022/03/19 02:56:46;;;;;;;29.93;19.10;;;1.50;99.90;;;;;;5120304;28;20448;-82
2022/03/19 02:59:20;;;;;;;29.63;18.83;;;1.80;99.90;;;;;;5119929;28;20413;-82
2022/03/19 03:01:54;;;;;;;29.43;19.17;;;1.40;99.90;;;;;;5121649;28;20434;-82
2022/03/19 03:04:20;;;;;;;32.17;18.73;;;1.40;99.90;;;;;;5122413;28;20479;-81
2022/03/19 03:06:48;;;;;;;28.17;18.70;;;1.50;99.90;;;;;;5122295;28;20552;-81
2022/03/19 03:09:17;;;;;;;32.73;20.17;;;1.40;99.90;;;;;;5124724;28;20401;-81
2022/03/19 03:11:43;;;;;;;29.77;19.60;;;1.40;99.90;;;;;;5134379;28;20393;-81
2022/03/19 03:14:10;;;;;;;32.73;20.20;;;1.70;99.90;;;;;;5134241;28;20417;-82
2022/03/19 03:16:37;;;;;;;29.60;19.47;;;2.80;99.90;;;;;;5127663;28;20274;-82
2022/03/19 03:19:06;;;;;;;32.10;20.80;;;1.30;99.90;;;;;;5118145;28;20421;-81
2022/03/19 03:21:33;;;;;;;31.17;20.00;;;1.20;99.90;;;;;;5116773;28;20436;-82
2022/03/19 03:23:59;;;;;;;30.43;18.20;;;1.10;99.90;;;;;;5117692;27;20456;-82
2022/03/19 03:26:25;;;;;;;33.20;21.07;;;1.20;99.90;;;;;;5117811;28;20908;-81
2022/03/19 03:28:52;;;;;;;33.13;20.60;;;1.20;99.90;;;;;;5117919;28;20444;-81
2022/03/19 03:31:17;;;;;;;30.67;19.77;;;1.30;99.90;;;;;;5116768;28;20413;-82
2022/03/19 03:33:43;;;;;;;36.23;19.90;;;1.10;99.90;;;;;;5116696;28;20422;-82
2022/03/19 03:36:09;;;;;;;36.50;20.53;;;1.10;99.90;;;;;;5117573;28;20218;-82
2022/03/19 03:38:35;;;;;;;33.23;21.13;;;1.80;99.90;;;;;;5118235;28;20660;-81
2022/03/19 03:41:00;;;;;;;39.27;20.93;;;1.50;99.90;;;;;;5118337;28;20644;-81
2022/03/19 03:43:26;;;;;;;29.30;19.20;;;1.10;99.90;;;;;;5116542;28;20199;-81
2022/03/19 03:45:52;;;;;;;35.73;20.60;;;1.60;99.90;;;;;;5116486;28;20552;-82
2022/03/19 03:48:18;;;;;;;32.27;21.33;;;2.10;99.90;;;;;;5117678;28;20262;-81
2022/03/19 03:50:44;;;;;;;35.20;21.53;;;1.20;99.90;;;;;;5117617;28;20178;-82
2022/03/19 03:53:10;;;;;;;38.13;21.03;;;1.00;99.90;;;;;;5117231;28;20175;-82
2022/03/19 03:55:38;;;;;;;31.90;19.93;;;1.20;99.90;;;;;;5116333;28;20447;-82
2022/03/19 03:58:04;;;;;;;35.23;21.37;;;1.50;99.90;;;;;;5117107;28;20179;-82
2022/03/19 04:00:33;;;;;;;34.47;20.50;;;1.20;99.90;;;;;;5117228;28;20527;-81
2022/03/19 04:02:58;;;;;;;36.03;20.87;;;0.70;99.90;;;;;;5115745;28;20492;-81
2022/03/19 04:05:24;;;;;;;38.07;22.57;;;0.70;99.90;;;;;;5116100;28;20950;-82
2022/03/19 04:07:50;;;;;;;34.33;21.50;;;0.60;99.90;;;;;;5117556;28;20180;-81
2022/03/19 04:10:16;;;;;;;35.00;21.40;;;0.50;99.90;;;;;;5116378;28;20175;-82
2022/03/19 04:12:43;;;;;;;35.63;21.47;;;2.40;99.90;;;;;;5117179;28;20777;-82
2022/03/19 04:15:10;;;;;;;39.90;22.20;;;0.60;99.90;;;;;;5118295;28;20910;-81
2022/03/19 04:17:35;;;;;;;37.27;21.90;;;0.40;99.90;;;;;;5116243;28;20456;-81
2022/03/19 04:20:03;;;;;;;35.03;21.87;;;0.40;99.90;;;;;;5119993;28;20413;-81
2022/03/19 04:22:34;;;;;;;37.50;21.60;;;1.00;99.90;;;;;;5120211;28;20655;-82
2022/03/19 04:24:59;;;;;;;36.70;21.47;;;0.30;99.90;;;;;;5119907;28;20413;-81
2022/03/19 04:27:25;;;;;;;33.73;22.37;;;1.40;99.90;;;;;;5120359;28;20420;-81
2022/03/19 04:29:50;;;;;;;40.87;23.43;;;0.20;99.90;;;;;;5120169;28;20175;-82
2022/03/19 04:32:16;;;;;;;34.87;21.80;;;0.20;99.90;;;;;;5121848;28;20246;-81
2022/03/19 04:34:42;;;;;;;38.33;22.53;;;0.30;99.90;;;;;;5121439;28;20265;-81
2022/03/19 04:37:08;;;;;;;39.60;23.90;;;0.20;99.90;;;;;;5121832;28;20258;-82
2022/03/19 04:39:34;;;;;;;39.33;24.23;;;0.20;99.90;;;;;;5119901;28;20178;-81
2022/03/19 04:41:59;;;;;;;44.00;24.67;;;0.50;99.90;;;;;;5119600;28;20495;-82
2022/03/19 04:44:25;;;;;;;40.73;24.97;;;0.30;99.90;;;;;;5120239;28;20203;-81
2022/03/19 04:46:51;;;;;;;39.43;24.37;;;0.60;99.90;;;;;;5121505;28;20188;-82
2022/03/19 04:49:16;;;;;;;42.57;26.37;;;1.00;99.90;;;;;;5120168;28;20176;-81
2022/03/19 04:51:42;;;;;;;44.27;25.50;;;0.80;99.90;;;;;;5120506;28;20171;-81
2022/03/19 04:54:08;;;;;;;41.53;24.97;;;0.90;99.90;;;;;;5121037;28;20188;-82
2022/03/19 04:56:34;;;;;;;42.80;26.50;;;0.80;99.90;;;;;;5121996;28;20195;-82
2022/03/19 04:59:00;;;;;;;43.73;23.93;;;0.10;99.90;;;;;;5121777;28;20692;-81
2022/03/19 05:01:30;;;;;;;43.23;25.80;;;0.10;99.90;;;;;;5119509;28;20187;-81
2022/03/19 05:03:56;;;;;;;44.10;26.13;;;0.10;99.90;;;;;;5120662;28;20448;-81
2022/03/19 05:06:22;;;;;;;45.57;27.07;;;0.00;99.90;;;;;;5121427;28;20432;-82
2022/03/19 05:11:34;;;;;;;54.43;28.17;;;1.60;99.90;;;;;;5121175;28;20639;-81
2022/03/19 05:13:59;;;;;;;50.33;29.13;;;-0.10;99.90;;;;;;5119159;28;20763;-81
2022/03/19 05:16:25;;;;;;;51.40;28.27;;;-0.10;99.90;;;;;;5120547;28;20436;-81
2022/03/19 05:18:51;;;;;;;55.47;30.03;;;-0.10;99.90;;;;;;5119195;28;20187;-81
2022/03/19 05:21:17;;;;;;;51.30;30.33;;;-0.20;99.90;;;;;;5119472;28;20692;-81
2022/03/19 05:23:46;;;;;;;55.50;31.83;;;0.90;99.90;;;;;;5120414;28;20206;-80
2022/03/19 05:26:12;;;;;;;56.97;32.43;;;-0.10;99.90;;;;;;5120683;28;20518;-80
2022/03/19 05:28:38;;;;;;;63.93;33.00;;;-0.10;99.90;;;;;;5120546;28;20441;-80
2022/03/19 05:31:04;;;;;;;64.60;35.00;;;-0.10;99.90;;;;;;5118151;28;20409;-80
2022/03/19 05:36:15;;;;;;;60.10;33.73;;;0.60;99.90;;;;;;5120121;28;20929;-80
2022/03/19 05:38:42;;;;;;;67.87;36.67;;;0.00;99.90;;;;;;5118570;28;20421;-80
2022/03/19 05:41:07;;;;;;;73.23;39.33;;;0.00;99.90;;;;;;5119398;28;20500;-80
2022/03/19 05:43:33;;;;;;;73.17;38.93;;;0.10;99.90;;;;;;5117699;28;20496;-80
2022/03/19 05:45:59;;;;;;;77.33;38.70;;;0.60;99.90;;;;;;5119314;28;20188;-80
2022/03/19 05:48:24;;;;;;;66.07;38.00;;;0.20;99.90;;;;;;5119176;28;20579;-80
2022/03/19 05:50:50;;;;;;;76.33;39.40;;;0.20;99.90;;;;;;5119952;28;20259;-80
2022/03/19 05:53:16;;;;;;;69.87;37.70;;;0.70;99.90;;;;;;5117483;28;20671;-80
2022/03/19 05:55:42;;;;;;;71.43;36.63;;;0.20;99.90;;;;;;5118904;28;20425;-80
2022/03/19 05:58:07;;;;;;;71.03;37.30;;;0.30;99.90;;;;;;5118261;28;20172;-81
2022/03/19 06:00:33;;;;;;;65.00;37.17;;;0.30;99.90;;;;;;5120127;28;20176;-81
2022/03/19 06:02:58;;;;;;;72.53;38.00;;;0.60;99.90;;;;;;5118380;28;20549;-82
2022/03/19 06:05:24;;;;;;;72.10;38.37;;;1.30;99.90;;;;;;5119917;28;20191;-82
2022/03/19 06:07:50;;;;;;;68.40;38.27;;;0.30;99.90;;;;;;5118925;28;20368;-81
2022/03/19 06:10:16;;;;;;;66.47;36.50;;;;;;;;;;5119667;28;20220;-81
2022/03/19 06:12:45;;;;;;;69.57;37.80;;;0.40;99.90;;;;;;5117781;28;20171;-82
2022/03/19 06:15:11;;;;;;;63.90;36.07;;;0.60;99.90;;;;;;5119819;28;20418;-82
2022/03/19 06:17:36;;;;;;;65.93;37.57;;;0.70;99.90;;;;;;5118879;28;20424;-82
2022/03/19 06:20:02;;;;;;;69.60;37.20;;;2.80;99.90;;;;;;5119033;28;20240;-82
2022/03/19 06:22:28;;;;;;;75.03;40.53;;;0.50;99.90;;;;;;5118288;28;20175;-83
2022/03/19 06:24:54;;;;;;;68.47;37.37;;;;;;;;;;5118595;28;20560;-82
2022/03/19 06:27:20;;;;;;;75.23;38.07;;;;;;;;;;5119904;28;20176;-82
2022/03/19 06:29:46;;;;;;;71.30;38.57;;;0.70;99.90;;;;;;5120588;28;20395;-82
2022/03/19 06:32:11;;;;;;;70.67;36.63;;;0.80;99.90;;;;;;5120136;28;20492;-82
2022/03/19 06:34:37;;;;;;;68.33;37.57;;;1.90;99.90;;;;;;5119796;28;20207;-80
2022/03/19 06:37:21;;;;;;;65.90;36.90;;;0.90;99.90;;;;;;5119551;28;20657;-80
2022/03/19 06:39:55;;;;;;;62.03;35.20;;;0.90;99.90;;;;;;5118586;28;20190;-80
2022/03/19 06:42:22;;;;;;;70.40;38.87;;;1.00;99.90;;;;;;5119818;28;20398;-82
2022/03/19 06:44:48;;;;;;;69.33;38.67;;;1.10;99.90;;;;;;5120339;28;20772;-83
2022/03/19 06:47:13;;;;;;;63.53;36.77;;;1.10;99.90;;;;;;5120902;28;20410;-84
2022/03/19 06:49:39;;;;;;;68.57;36.20;;;1.10;99.90;;;;;;5120890;28;20538;-83
2022/03/19 06:52:05;;;;;;;72.63;40.63;;;1.20;99.90;;;;;;5120530;28;20171;-82
2022/03/19 06:54:30;;;;;;;75.80;38.27;;;1.20;99.90;;;;;;5119932;28;20179;-82
2022/03/19 06:56:56;;;;;;;64.23;38.20;;;1.60;99.90;;;;;;5120054;28;20672;-82
2022/03/19 06:59:22;;;;;;;68.80;38.87;;;1.40;99.90;;;;;;5121131;28;20172;-80
2022/03/19 07:01:48;;;;;;;60.83;37.00;;;1.50;99.90;;;;;;5118717;28;20183;-82
2022/03/19 07:04:14;;;;;;;65.67;35.93;;;1.80;99.90;;;;;;5122376;28;20187;-84
2022/03/19 07:06:39;;;;;;;61.17;35.03;;;1.80;99.90;;;;;;5120590;28;20555;-83
2022/03/19 07:09:06;;;;;;;65.40;36.63;;;1.90;99.90;;;;;;5121004;28;20629;-83
2022/03/19 07:11:32;;;;;;;67.60;37.03;;;1.90;99.90;;;;;;5123237;28;20167;-83
2022/03/19 07:13:58;;;;;;;57.60;34.20;;;2.20;99.90;;;;;;5121498;28;20910;-86
2022/03/19 07:16:24;;;;;;;54.50;33.97;;;2.30;99.90;;;;;;5120829;28;20430;-83
2022/03/19 07:18:51;;;;;;;62.67;36.10;;;2.30;99.90;;;;;;5122082;28;20480;-83
2022/03/19 07:21:17;;;;;;;58.93;34.30;;;2.50;99.90;;;;;;5121166;28;20163;-84
2022/03/19 07:23:43;;;;;;;67.03;37.13;;;3.00;99.90;;;;;;5122491;28;20453;-83
2022/03/19 07:26:09;;;;;;;64.07;37.13;;;2.70;99.90;;;;;;5119835;28;20329;-82
2022/03/19 07:28:35;;;;;;;66.13;35.57;;;2.90;99.90;;;;;;5118581;28;20428;-81
2022/03/19 07:31:01;;;;;;;55.53;34.83;;;3.10;99.90;;;;;;5120340;28;20413;-85
2022/03/19 07:33:29;;;;;;;63.33;36.23;;;3.30;99.90;;;;;;5118128;28;20505;-82
2022/03/19 07:35:55;;;;;;;57.50;36.13;;;3.60;99.90;;;;;;5117964;28;20202;-81
2022/03/19 07:38:20;;;;;;;57.27;33.93;;;3.80;99.90;;;;;;5118558;28;20414;-84
2022/03/19 07:43:31;;;;;;;56.17;33.07;;;4.70;99.90;;;;;;5129863;27;20209;-84
2022/03/19 07:46:00;;;;;;;51.93;33.03;;;4.90;99.90;;;;;;5116173;28;20473;-86
2022/03/19 07:48:26;;;;;;;49.70;32.60;;;5.20;99.90;;;;;;5099542;28;20769;-84
2022/03/19 07:50:52;;;;;;;47.53;30.90;;;5.60;99.90;;;;;;5105276;28;20899;-87
2022/03/19 07:53:18;;;;;;;45.37;29.17;;;5.80;99.90;;;;;;5095846;28;20200;-82
2022/03/19 07:55:43;;;;;;;46.27;30.27;;;6.00;99.90;;;;;;5115277;28;20252;-83
2022/03/19 07:58:10;;;;;;;46.17;29.77;;;6.20;99.90;;;;;;5137166;27;20175;-81
2022/03/19 08:00:35;;;;;;;43.70;29.13;;;6.30;99.90;;;;;;5130480;28;20171;-84
2022/03/19 08:03:01;;;;;;;41.30;27.53;;;6.60;99.90;;;;;;5116600;28;20214;-81
2022/03/19 08:05:28;;;;;;;42.40;28.40;;;6.90;99.90;;;;;;5115703;28;20219;-82
2022/03/19 08:07:54;;;;;;;43.27;29.57;;;7.20;99.90;;;;;;5117931;28;20637;-80
2022/03/19 08:10:19;;;;;;;43.80;28.70;;;7.30;99.90;;;;;;5116747;28;20195;-80
2022/03/19 08:12:46;;;;;;;43.60;28.50;;;7.70;99.90;;;;;;5115506;28;20189;-80
2022/03/19 08:15:12;;;;;;;42.20;28.43;;;8.30;99.90;;;;;;5117396;28;20598;-81
2022/03/19 08:17:41;;;;;;;41.10;28.20;;;8.80;99.90;;;;;;5116392;28;20689;-79
2022/03/19 08:20:07;;;;;;;44.97;29.07;;;8.80;99.90;;;;;;5116289;28;20186;-83
2022/03/19 08:22:33;;;;;;;44.80;28.10;;;8.60;99.90;;;;;;5114765;28;20208;-77
2022/03/19 08:24:59;;;;;;;38.73;26.67;;;8.10;99.90;;;;;;5118360;28;20175;-82
2022/03/19 08:27:26;;;;;;;39.07;26.57;;;8.10;99.90;;;;;;5119450;28;20258;-82
2022/03/19 08:29:52;;;;;;;40.47;26.63;;;8.40;99.90;;;;;;5122360;28;20167;-83
2022/03/19 08:32:18;;;;;;;38.27;26.83;;;8.80;99.90;;;;;;5120285;28;20612;-83
2022/03/19 08:34:45;;;;;;;41.37;26.87;;;8.80;99.90;;;;;;5119853;28;20176;-83
2022/03/19 08:37:11;;;;;;;38.93;25.20;;;8.70;99.90;;;;;;5120759;28;20199;-84
2022/03/19 08:42:22;;;;;;;34.33;24.17;;;9.10;99.90;;;;;;5123428;28;20175;-83
2022/03/19 08:44:48;;;;;;;39.83;25.97;;;9.30;99.90;;;;;;5120523;28;20184;-83
2022/03/19 08:47:14;;;;;;;35.77;24.50;;;9.30;99.90;;;;;;5123338;28;20235;-83
2022/03/19 08:49:39;;;;;;;34.93;22.80;;;9.40;99.90;;;;;;5124058;28;20172;-82
2022/03/19 08:52:05;;;;;;;30.70;23.23;;;9.30;99.90;;;;;;5123317;28;20220;-83
2022/03/19 08:54:31;;;;;;;34.43;23.13;;;9.50;99.90;;;;;;5122746;28;20183;-82
2022/03/19 08:56:56;;;;;;;35.53;24.87;;;9.40;99.90;;;;;;5125178;28;20237;-80
2022/03/19 08:59:22;;;;;;;38.50;27.27;;;9.30;99.90;;;;;;5123366;28;20255;-83
2022/03/19 09:01:50;;;;;;;35.60;24.73;;;9.50;99.90;;;;;;5122434;28;20179;-83
2022/03/19 09:04:17;;;;;;;34.97;24.17;;;9.80;99.90;;;;;;5121978;28;20195;-84
2022/03/19 09:06:43;;;;;;;33.20;24.77;;;10.00;99.90;;;;;;5122572;28;20220;-83
2022/03/19 09:09:09;;;;;;;35.37;25.93;;;10.10;99.60;;;;;;5124741;28;20184;-83
2022/03/19 09:11:36;;;;;;;33.37;24.33;;;9.90;99.90;;;;;;5124947;28;20171;-82
2022/03/19 09:14:04;;;;;;;34.90;25.13;;;9.80;99.90;;;;;;5125223;28;20179;-83
2022/03/19 09:16:31;;;;;;;34.80;25.43;;;9.80;99.90;;;;;;5122071;28;20191;-86
2022/03/19 09:18:57;;;;;;;33.33;24.80;;;10.00;99.10;;;;;;5122416;28;20182;-82
2022/03/19 09:21:23;;;;;;;35.87;24.90;;;10.10;99.70;;;;;;5125128;28;20226;-79
2022/03/19 09:23:49;;;;;;;30.93;24.73;;;10.30;98.90;;;;;;5125359;28;20208;-84
2022/03/19 09:26:16;;;;;;;30.90;24.03;;;10.50;98.30;;;;;;5126603;28;20657;-85
2022/03/19 09:28:42;;;;;;;32.53;23.97;;;10.20;97.20;;;;;;5124661;28;20175;-83
2022/03/19 09:31:08;;;;;;;32.07;24.83;;;9.90;98.70;;;;;;5125693;28;20178;-82
2022/03/19 09:33:34;;;;;;;29.27;23.33;;;10.30;97.50;;;;;;5120450;28;20213;-82
2022/03/19 09:36:01;;;;;;;33.47;23.73;;;10.20;96.70;;;;;;5127107;28;20228;-82
2022/03/19 09:38:28;;;;;;;28.67;24.17;;;10.40;97.80;;;;;;5121118;28;20243;-82
2022/03/19 09:40:55;;;;;;;30.60;25.40;;;10.70;96.50;;;;;;5123589;28;20200;-83
2022/03/19 09:43:29;;;;;;;30.33;24.60;;;10.80;96.60;;;;;;5121447;28;20199;-84
2022/03/19 09:45:55;;;;;;;29.60;24.00;;;11.10;96.50;;;;;;5123011;28;20193;-83
2022/03/19 09:48:21;;;;;;;29.10;23.53;;;11.40;95.80;;;;;;5123227;28;20171;-81
2022/03/19 09:50:51;;;;;;;33.97;25.10;;;11.30;93.80;;;;;;5125105;28;20165;-82
2022/03/19 09:53:20;;;;;;;30.67;24.83;;;11.10;94.50;;;;;;5123417;28;20180;-83
2022/03/19 09:55:46;;;;;;;36.70;25.30;;;11.20;94.80;;;;;;5123224;28;20200;-83
2022/03/19 09:58:15;;;;;;;33.87;24.67;;;11.20;93.00;;;;;;5122526;28;20689;-82
2022/03/19 10:00:41;;;;;;;31.20;24.70;;;11.00;93.50;;;;;;5124038;28;20177;-82
2022/03/19 10:03:12;;;;;;;31.00;23.43;;;11.10;93.70;;;;;;5122971;28;20205;-83
2022/03/19 10:08:39;;;;;;;27.80;22.63;;;11.20;92.10;;;;;;5122228;28;20189;-83
2022/03/19 10:11:13;;;;;;;32.40;22.87;;;11.00;92.30;;;;;;5120520;28;20177;-81
2022/03/19 10:13:45;;;;;;;32.83;23.33;;;11.60;92.20;;;;;;5122247;28;20181;-82
2022/03/19 10:16:28;;;;;;;32.40;23.43;;;11.80;91.20;;;;;;5118701;28;20325;-86
2022/03/19 10:18:59;;;;;;;28.43;23.10;;;11.60;91.00;;;;;;5119268;28;20230;-83
2022/03/19 10:21:26;;;;;;;32.47;24.10;;;11.60;90.20;;;;;;5119295;28;20173;-84
2022/03/19 10:23:53;;;;;;;29.03;22.87;;;11.70;90.90;;;;;;5118866;28;20247;-85
2022/03/19 10:26:35;;;;;;;23.97;21.33;;;12.20;90.60;;;;;;5120009;28;20251;-85
2022/03/19 10:29:06;;;;;;;29.17;22.83;;;12.40;86.80;;;;;;5121123;28;20647;-86
2022/03/19 10:31:39;;;;;;;29.37;23.17;;;11.80;86.30;;;;;;5119957;28;20261;-88
2022/03/19 10:34:07;;;;;;;27.17;22.43;;;11.80;88.10;;;;;;5117806;28;20248;-89
2022/03/19 10:36:38;;;;;;;26.40;22.87;;;12.20;86.70;;;;;;5119200;28;20190;-89
2022/03/19 10:39:21;;;;;;;27.40;22.70;;;12.10;82.80;;;;;;5119862;28;20171;-86
2022/03/19 10:41:48;;;;;;;27.47;22.13;;;12.00;83.00;;;;;;5119374;28;20235;-85
2022/03/19 10:44:16;;;;;;;27.47;22.53;;;12.40;83.50;;;;;;5119874;28;20198;-89
2022/03/19 10:46:54;;;;;;;26.93;21.57;;;12.70;82.80;;;;;;5117795;28;20190;-89
2022/03/19 10:49:29;;;;;;;28.10;22.27;;;12.80;82.70;;;;;;5119082;28;20634;-88
2022/03/19 10:51:58;;;;;;;28.77;23.00;;;12.60;78.00;;;;;;5117750;28;20173;-87
2022/03/19 10:54:24;;;;;;;29.17;22.07;;;12.50;82.20;;;;;;5119002;28;20548;-87
2022/03/19 10:56:52;;;;;;;25.50;22.17;;;12.30;77.90;;;;;;5119759;28;20195;-87
2022/03/19 10:59:19;;;;;;;28.80;22.70;;;12.20;79.30;;;;;;5119437;28;20209;-85
2022/03/19 11:01:49;;;;;;;26.83;22.17;;;12.00;77.60;;;;;;5121686;28;20167;-85
2022/03/19 11:04:15;;;;;;;27.80;22.17;;;12.50;79.60;;;;;;5118724;28;20236;-84
2022/03/19 11:06:51;;;;;;;32.00;22.80;;;12.70;75.10;;;;;;5119227;28;20192;-83
2022/03/19 11:09:20;;;;;;;27.37;22.17;;;13.00;76.30;;;;;;5119602;28;20545;-87
2022/03/19 11:11:57;;;;;;;30.00;21.87;;;12.90;72.50;;;;;;5117733;28;20184;-86
2022/03/19 11:14:26;;;;;;;24.97;21.50;;;12.60;74.30;;;;;;5118574;28;20204;-86
2022/03/19 11:19:48;;;;;;;27.03;21.90;;;12.90;72.20;;;;;;5120972;28;20227;-85
2022/03/19 11:22:13;;;;;;;25.13;21.93;;;12.70;73.10;;;;;;5119965;28;20270;-86
2022/03/19 11:25:07;;;;;;;26.60;22.27;;;12.60;72.50;;;;;;5119241;28;20227;-84
2022/03/19 11:27:36;;;;;;;28.03;22.07;;;12.50;72.10;;;;;;5120678;28;20186;-81
2022/03/19 11:30:04;;;;;;;26.60;22.47;;;12.80;72.60;;;;;;5118795;28;20171;-84
2022/03/19 11:32:30;;;;;;;29.47;22.47;;;13.00;70.70;;;;;;5120810;28;20262;-84
2022/03/19 11:34:57;;;;;;;25.20;21.40;;;13.30;72.90;;;;;;5122872;28;20176;-84
2022/03/19 11:37:23;;;;;;;26.23;21.47;;;13.30;68.20;;;;;;5120280;28;20259;-84
2022/03/19 11:40:21;;;;;;;26.13;21.50;;;13.40;67.80;;;;;;5120625;28;20163;-84
2022/03/19 11:42:56;;;;;;;24.70;20.90;;;12.80;69.50;;;;;;5118533;28;20178;-83
2022/03/19 11:45:22;;;;;;;24.60;22.07;;;12.90;69.80;;;;;;5119967;28;20198;-83
2022/03/19 11:47:48;;;;;;;23.07;20.10;;;12.90;67.80;;;;;;5121535;28;20172;-85
2022/03/19 11:50:23;;;;;;;23.93;21.33;;;12.70;68.00;;;;;;5122158;28;20181;-84
2022/03/19 11:52:52;;;;;;;25.97;22.13;;;12.90;68.50;;;;;;5118216;28;20623;-84
2022/03/19 11:55:23;;;;;;;26.97;21.77;;;13.10;67.80;;;;;;5121123;28;20209;-87
2022/03/19 11:57:56;;;;;;;24.30;20.37;;;13.20;68.50;;;;;;5123283;28;20176;-87
2022/03/19 12:00:27;;;;;;;26.83;20.17;;;13.30;66.70;;;;;;5121249;28;20310;-87
2022/03/19 12:03:17;;;;;;;28.13;22.13;;;13.60;67.30;;;;;;5122325;28;20260;-86
2022/03/19 12:05:45;;;;;;;25.03;20.53;;;13.90;63.20;;;;;;5122642;28;20195;-84
2022/03/19 12:08:17;;;;;;;23.30;20.77;;;14.10;64.70;;;;;;5122224;28;20181;-84
2022/03/19 12:11:01;;;;;;;23.07;19.60;;;14.10;63.30;;;;;;5122775;28;20239;-87
2022/03/19 12:13:26;;;;;;;25.63;21.93;;;14.50;62.80;;;;;;5123166;28;20186;-82
2022/03/19 12:16:02;;;;;;;23.17;20.53;;;14.60;61.90;;;;;;5123305;28;20206;-88
2022/03/19 12:18:44;;;;;;;25.93;21.70;;;14.70;59.90;;;;;;5122697;28;20213;-85
2022/03/19 12:21:10;;;;;;;23.13;19.80;;;14.50;59.10;;;;;;5126979;28;20170;-84
2022/03/19 12:23:58;;;;;;;22.63;19.40;;;14.70;62.60;;;;;;5133513;28;20238;-84
2022/03/19 12:26:25;;;;;;;22.43;19.03;;;15.60;59.90;;;;;;5122865;28;20260;-84
2022/03/19 12:28:58;;;;;;;24.47;19.93;;;16.00;57.80;;;;;;5122764;28;20614;-82
2022/03/19 12:31:32;;;;;;;25.17;20.17;;;15.70;56.30;;;;;;5123342;28;20237;-84
2022/03/19 12:33:58;;;;;;;26.17;19.97;;;15.70;57.20;;;;;;5122440;28;20191;-84
2022/03/19 12:36:24;;;;;;;25.57;18.70;;;15.30;56.30;;;;;;5121457;28;20191;-85
2022/03/19 12:38:50;;;;;;;23.27;18.50;;;15.40;56.90;;;;;;5121488;28;20187;-84
2022/03/19 12:41:23;;;;;;;23.50;20.20;;;15.40;57.30;;;;;;5124424;28;20233;-84
2022/03/19 12:43:50;;;;;;;24.77;21.10;;;15.70;56.20;;;;;;5127257;28;20259;-85
2022/03/19 12:46:30;;;;;;;23.70;19.33;;;15.90;56.50;;;;;;5125347;28;20290;-84
2022/03/19 12:49:11;;;;;;;23.93;20.47;;;15.30;53.70;;;;;;5125652;28;20168;-84
2022/03/19 12:51:46;;;;;;;24.40;21.70;;;14.90;55.00;;;;;;5127895;28;20168;-83
2022/03/19 12:54:28;;;;;;;21.60;19.00;;;15.30;54.90;;;;;;5126963;28;20179;-85
2022/03/19 12:56:57;;;;;;;22.53;19.57;;;15.50;52.80;;;;;;5139943;28;20196;-84
2022/03/19 12:59:28;;;;;;;21.83;19.33;;;15.00;53.90;;;;;;5138837;28;20175;-83